sensor_id;sensor_type;location;lat;lon;timestamp;pressure;altitude;pressure_sealevel;temperature;humidity
6567;BME280;3317;43.994;22.878;2022-09-04T00:02:32;101417.13;;;19.16;80.99
6567;BME280;3317;43.994;22.878;2022-09-04T00:05:12;101425.75;;;19.13;81.46
6567;BME280;3317;43.994;22.878;2022-09-04T00:07:56;101426.88;;;19.19;81.18
6567;BME280;3317;43.994;22.878;2022-09-04T00:10:30;101430.84;;;19.16;81.02
6567;BME280;3317;43.994;22.878;2022-09-04T00:13:04;101425.34;;;19.16;80.66
6567;BME280;3317;43.994;22.878;2022-09-04T00:15:35;101441.06;;;19.22;80.33
6567;BME280;3317;43.994;22.878;2022-09-04T00:18:09;101434.53;;;19.23;80.16
6567;BME280;3317;43.994;22.878;2022-09-04T00:20:41;101434.72;;;19.22;80.70
6567;BME280;3317;43.994;22.878;2022-09-04T00:23:16;101414.00;;;19.19;80.11
6567;BME280;3317;43.994;22.878;2022-09-04T00:25:52;101441.63;;;19.33;79.44
6567;BME280;3317;43.994;22.878;2022-09-04T00:28:32;101444.28;;;19.26;79.61
6567;BME280;3317;43.994;22.878;2022-09-04T00:31:05;101458.38;;;19.38;79.49
6567;BME280;3317;43.994;22.878;2022-09-04T00:33:43;101458.38;;;19.38;79.25
6567;BME280;3317;43.994;22.878;2022-09-04T00:36:15;101461.31;;;19.36;79.51
6567;BME280;3317;43.994;22.878;2022-09-04T00:38:47;101449.22;;;19.31;79.88
6567;BME280;3317;43.994;22.878;2022-09-04T00:41:23;101446.00;;;19.27;79.98
6567;BME280;3317;43.994;22.878;2022-09-04T00:44:16;101462.56;;;19.34;80.39
6567;BME280;3317;43.994;22.878;2022-09-04T00:47:08;101467.75;;;19.28;80.75
6567;BME280;3317;43.994;22.878;2022-09-04T00:49:52;101458.78;;;19.20;81.10
6567;BME280;3317;43.994;22.878;2022-09-04T00:52:37;101453.50;;;19.18;81.11
6567;BME280;3317;43.994;22.878;2022-09-04T00:55:19;101455.56;;;19.16;81.37
6567;BME280;3317;43.994;22.878;2022-09-04T00:58:05;101454.91;;;19.14;81.63
6567;BME280;3317;43.994;22.878;2022-09-04T01:00:34;101461.00;;;19.09;81.76
6567;BME280;3317;43.994;22.878;2022-09-04T01:03:16;101460.16;;;19.09;81.77
6567;BME280;3317;43.994;22.878;2022-09-04T01:11:39;101452.78;;;18.94;82.00
6567;BME280;3317;43.994;22.878;2022-09-04T01:14:13;101435.56;;;18.70;82.26
6567;BME280;3317;43.994;22.878;2022-09-04T01:16:45;101453.00;;;18.78;82.20
6567;BME280;3317;43.994;22.878;2022-09-04T01:19:28;101461.50;;;18.68;82.44
6567;BME280;3317;43.994;22.878;2022-09-04T01:25:14;101454.22;;;18.60;82.83
6567;BME280;3317;43.994;22.878;2022-09-04T01:27:57;101461.16;;;18.56;82.90
6567;BME280;3317;43.994;22.878;2022-09-04T01:30:31;101466.06;;;18.61;82.64
6567;BME280;3317;43.994;22.878;2022-09-04T01:33:06;101465.75;;;18.55;83.05
6567;BME280;3317;43.994;22.878;2022-09-04T01:35:43;101467.47;;;18.56;82.97
6567;BME280;3317;43.994;22.878;2022-09-04T01:38:19;101472.50;;;18.53;82.71
6567;BME280;3317;43.994;22.878;2022-09-04T01:40:55;101466.06;;;18.46;82.98
6567;BME280;3317;43.994;22.878;2022-09-04T01:43:26;101459.59;;;18.38;83.21
6567;BME280;3317;43.994;22.878;2022-09-04T01:46:29;101455.38;;;18.36;83.51
6567;BME280;3317;43.994;22.878;2022-09-04T01:49:07;101449.78;;;18.29;83.88
6567;BME280;3317;43.994;22.878;2022-09-04T01:51:41;101452.53;;;18.29;83.91
6567;BME280;3317;43.994;22.878;2022-09-04T01:54:30;101452.03;;;18.25;84.31
6567;BME280;3317;43.994;22.878;2022-09-04T01:57:09;101456.66;;;18.25;84.36
6567;BME280;3317;43.994;22.878;2022-09-04T01:59:49;101451.00;;;18.26;84.18
6567;BME280;3317;43.994;22.878;2022-09-04T02:02:26;101455.44;;;18.27;84.15
6567;BME280;3317;43.994;22.878;2022-09-04T02:05:00;101463.28;;;18.30;83.84
6567;BME280;3317;43.994;22.878;2022-09-04T02:07:40;101451.47;;;18.30;83.89
6567;BME280;3317;43.994;22.878;2022-09-04T02:10:20;101458.66;;;18.31;83.31
6567;BME280;3317;43.994;22.878;2022-09-04T02:13:03;101464.88;;;18.25;83.81
6567;BME280;3317;43.994;22.878;2022-09-04T02:15:39;101468.59;;;18.32;83.92
6567;BME280;3317;43.994;22.878;2022-09-04T02:18:14;101459.72;;;18.30;83.79
6567;BME280;3317;43.994;22.878;2022-09-04T02:20:52;101463.13;;;18.32;84.06
6567;BME280;3317;43.994;22.878;2022-09-04T02:23:28;101469.91;;;18.36;83.56
6567;BME280;3317;43.994;22.878;2022-09-04T02:26:05;101469.47;;;18.33;83.72
6567;BME280;3317;43.994;22.878;2022-09-04T02:28:45;101463.19;;;18.24;84.09
6567;BME280;3317;43.994;22.878;2022-09-04T02:31:25;101474.94;;;18.18;84.67
6567;BME280;3317;43.994;22.878;2022-09-04T02:34:00;101455.72;;;18.18;84.54
6567;BME280;3317;43.994;22.878;2022-09-04T02:36:33;101454.50;;;18.20;84.24
6567;BME280;3317;43.994;22.878;2022-09-04T02:39:14;101468.13;;;18.13;84.94
6567;BME280;3317;43.994;22.878;2022-09-04T02:41:50;101464.56;;;18.05;85.31
6567;BME280;3317;43.994;22.878;2022-09-04T02:44:33;101414.34;;;17.66;85.96
6567;BME280;3317;43.994;22.878;2022-09-04T02:47:12;101458.50;;;17.94;86.06
6567;BME280;3317;43.994;22.878;2022-09-04T02:49:53;101444.84;;;17.86;86.54
6567;BME280;3317;43.994;22.878;2022-09-04T02:52:43;101446.38;;;17.88;86.71
6567;BME280;3317;43.994;22.878;2022-09-04T02:55:22;101450.81;;;17.90;85.95
6567;BME280;3317;43.994;22.878;2022-09-04T02:58:01;101396.75;;;17.60;86.10
6567;BME280;3317;43.994;22.878;2022-09-04T03:00:42;101460.25;;;17.87;86.54
6567;BME280;3317;43.994;22.878;2022-09-04T03:03:18;101456.97;;;17.92;86.00
6567;BME280;3317;43.994;22.878;2022-09-04T03:05:52;101461.41;;;17.93;85.79
6567;BME280;3317;43.994;22.878;2022-09-04T03:08:25;101463.41;;;17.99;85.48
6567;BME280;3317;43.994;22.878;2022-09-04T03:11:00;101465.78;;;18.02;85.55
6567;BME280;3317;43.994;22.878;2022-09-04T03:13:36;101469.88;;;18.06;85.71
6567;BME280;3317;43.994;22.878;2022-09-04T03:16:11;101466.66;;;18.02;85.72
6567;BME280;3317;43.994;22.878;2022-09-04T03:19:00;101453.13;;;18.01;85.34
6567;BME280;3317;43.994;22.878;2022-09-04T03:21:34;101467.88;;;18.00;85.46
6567;BME280;3317;43.994;22.878;2022-09-04T03:24:08;101478.50;;;18.03;85.53
6567;BME280;3317;43.994;22.878;2022-09-04T03:26:40;101457.44;;;17.95;85.63
6567;BME280;3317;43.994;22.878;2022-09-04T03:29:19;101475.78;;;17.95;85.26
6567;BME280;3317;43.994;22.878;2022-09-04T03:31:55;101472.75;;;17.90;85.59
6567;BME280;3317;43.994;22.878;2022-09-04T03:34:38;101477.38;;;17.89;85.87
6567;BME280;3317;43.994;22.878;2022-09-04T03:37:16;101465.34;;;17.75;85.97
6567;BME280;3317;43.994;22.878;2022-09-04T03:39:57;101485.97;;;17.86;86.04
6567;BME280;3317;43.994;22.878;2022-09-04T03:42:31;101431.22;;;17.54;86.29
6567;BME280;3317;43.994;22.878;2022-09-04T03:45:10;101484.06;;;17.86;86.04
6567;BME280;3317;43.994;22.878;2022-09-04T03:47:49;101465.25;;;17.83;85.65
6567;BME280;3317;43.994;22.878;2022-09-04T03:50:25;101478.59;;;17.86;85.88
6567;BME280;3317;43.994;22.878;2022-09-04T03:53:02;101473.59;;;17.90;85.90
6567;BME280;3317;43.994;22.878;2022-09-04T03:56:10;101475.19;;;17.84;86.46
6567;BME280;3317;43.994;22.878;2022-09-04T03:58:45;101489.09;;;17.83;86.56
6567;BME280;3317;43.994;22.878;2022-09-04T04:01:22;101501.38;;;17.87;86.08
6567;BME280;3317;43.994;22.878;2022-09-04T04:04:28;101509.06;;;17.92;86.23
6567;BME280;3317;43.994;22.878;2022-09-04T04:07:07;101511.47;;;17.86;86.33
6567;BME280;3317;43.994;22.878;2022-09-04T04:09:49;101506.50;;;17.90;85.99
6567;BME280;3317;43.994;22.878;2022-09-04T04:15:22;101517.84;;;17.87;85.83
6567;BME280;3317;43.994;22.878;2022-09-04T04:18:20;101524.97;;;17.96;84.65
6567;BME280;3317;43.994;22.878;2022-09-04T04:20:59;101520.28;;;18.05;83.76
6567;BME280;3317;43.994;22.878;2022-09-04T04:23:47;101529.84;;;18.09;82.84
6567;BME280;3317;43.994;22.878;2022-09-04T04:26:32;101537.69;;;18.12;82.52
6567;BME280;3317;43.994;22.878;2022-09-04T04:32:30;101538.41;;;18.14;82.36
6567;BME280;3317;43.994;22.878;2022-09-04T04:35:09;101540.81;;;18.09;83.38
6567;BME280;3317;43.994;22.878;2022-09-04T04:37:48;101555.91;;;18.13;83.17
6567;BME280;3317;43.994;22.878;2022-09-04T04:40:28;101550.31;;;18.22;81.85
6567;BME280;3317;43.994;22.878;2022-09-04T04:43:06;101546.91;;;18.20;81.78
6567;BME280;3317;43.994;22.878;2022-09-04T04:45:43;101547.16;;;18.10;82.70
6567;BME280;3317;43.994;22.878;2022-09-04T04:51:41;101560.75;;;18.03;83.51
6567;BME280;3317;43.994;22.878;2022-09-04T04:54:41;101567.59;;;18.07;83.75
6567;BME280;3317;43.994;22.878;2022-09-04T04:57:23;101571.00;;;18.09;83.19
6567;BME280;3317;43.994;22.878;2022-09-04T05:00:03;101579.22;;;18.09;82.91
6567;BME280;3317;43.994;22.878;2022-09-04T05:02:37;101578.38;;;18.09;83.26
6567;BME280;3317;43.994;22.878;2022-09-04T05:05:12;101570.44;;;18.14;82.76
6567;BME280;3317;43.994;22.878;2022-09-04T05:07:49;101577.47;;;18.17;83.40
6567;BME280;3317;43.994;22.878;2022-09-04T05:10:24;101570.28;;;18.15;83.19
6567;BME280;3317;43.994;22.878;2022-09-04T05:13:10;101568.06;;;18.11;83.85
6567;BME280;3317;43.994;22.878;2022-09-04T05:15:44;101566.53;;;18.08;84.12
6567;BME280;3317;43.994;22.878;2022-09-04T05:18:19;101550.47;;;17.97;83.90
6567;BME280;3317;43.994;22.878;2022-09-04T05:20:57;101575.16;;;18.05;84.28
6567;BME280;3317;43.994;22.878;2022-09-04T05:23:34;101593.69;;;18.03;84.84
6567;BME280;3317;43.994;22.878;2022-09-04T05:26:10;101601.09;;;17.94;85.20
6567;BME280;3317;43.994;22.878;2022-09-04T05:28:55;101598.22;;;17.87;85.82
6567;BME280;3317;43.994;22.878;2022-09-04T05:31:37;101597.19;;;17.88;85.85
6567;BME280;3317;43.994;22.878;2022-09-04T05:34:10;101578.41;;;17.77;86.19
6567;BME280;3317;43.994;22.878;2022-09-04T05:36:48;101590.03;;;17.79;86.25
6567;BME280;3317;43.994;22.878;2022-09-04T05:39:26;101601.78;;;17.88;86.33
6567;BME280;3317;43.994;22.878;2022-09-04T05:42:11;101600.09;;;17.87;86.30
6567;BME280;3317;43.994;22.878;2022-09-04T05:44:55;101586.00;;;17.90;86.01
6567;BME280;3317;43.994;22.878;2022-09-04T05:47:35;101579.38;;;17.84;85.65
6567;BME280;3317;43.994;22.878;2022-09-04T05:50:22;101592.66;;;17.96;85.48
6567;BME280;3317;43.994;22.878;2022-09-04T05:53:11;101602.59;;;17.97;85.17
6567;BME280;3317;43.994;22.878;2022-09-04T05:56:01;101588.34;;;18.01;85.21
6567;BME280;3317;43.994;22.878;2022-09-04T05:58:40;101590.78;;;17.96;85.47
6567;BME280;3317;43.994;22.878;2022-09-04T06:01:21;101587.16;;;17.96;85.91
6567;BME280;3317;43.994;22.878;2022-09-04T06:04:02;101590.44;;;17.91;86.23
6567;BME280;3317;43.994;22.878;2022-09-04T06:06:41;101585.50;;;17.86;86.51
6567;BME280;3317;43.994;22.878;2022-09-04T06:09:23;101582.06;;;17.93;86.68
6567;BME280;3317;43.994;22.878;2022-09-04T06:12:23;101584.06;;;17.99;86.07
6567;BME280;3317;43.994;22.878;2022-09-04T06:15:03;101577.25;;;17.95;86.17
6567;BME280;3317;43.994;22.878;2022-09-04T06:17:54;101553.22;;;17.73;86.48
6567;BME280;3317;43.994;22.878;2022-09-04T06:20:42;101586.13;;;18.05;85.95
6567;BME280;3317;43.994;22.878;2022-09-04T06:26:15;101600.00;;;18.04;86.29
6567;BME280;3317;43.994;22.878;2022-09-04T06:29:05;101559.22;;;17.77;86.66
6567;BME280;3317;43.994;22.878;2022-09-04T06:31:56;101580.78;;;17.80;87.13
6567;BME280;3317;43.994;22.878;2022-09-04T06:34:57;101600.97;;;17.87;87.93
6567;BME280;3317;43.994;22.878;2022-09-04T06:37:34;101601.38;;;17.76;88.07
6567;BME280;3317;43.994;22.878;2022-09-04T06:40:21;101610.88;;;17.88;87.69
6567;BME280;3317;43.994;22.878;2022-09-04T06:43:06;101599.44;;;17.85;87.07
6567;BME280;3317;43.994;22.878;2022-09-04T06:45:47;101599.28;;;17.78;87.51
6567;BME280;3317;43.994;22.878;2022-09-04T06:48:27;101596.19;;;17.81;87.59
6567;BME280;3317;43.994;22.878;2022-09-04T06:51:16;101599.97;;;17.80;87.22
6567;BME280;3317;43.994;22.878;2022-09-04T06:53:54;101605.94;;;17.84;87.55
6567;BME280;3317;43.994;22.878;2022-09-04T06:56:37;101607.81;;;17.83;87.89
6567;BME280;3317;43.994;22.878;2022-09-04T06:59:31;101540.06;;;17.45;87.82
6567;BME280;3317;43.994;22.878;2022-09-04T07:02:13;101611.06;;;17.87;87.87
6567;BME280;3317;43.994;22.878;2022-09-04T07:04:50;101617.41;;;17.87;87.63
6567;BME280;3317;43.994;22.878;2022-09-04T07:07:26;101618.41;;;17.86;87.95
6567;BME280;3317;43.994;22.878;2022-09-04T07:09:57;101628.41;;;17.79;88.53
6567;BME280;3317;43.994;22.878;2022-09-04T07:12:43;101614.53;;;17.81;88.44
6567;BME280;3317;43.994;22.878;2022-09-04T07:15:45;101603.50;;;17.89;87.53
6567;BME280;3317;43.994;22.878;2022-09-04T07:18:31;101620.16;;;17.87;87.51
6567;BME280;3317;43.994;22.878;2022-09-04T07:21:11;101623.84;;;17.95;87.02
6567;BME280;3317;43.994;22.878;2022-09-04T07:23:49;101613.94;;;17.94;86.55
6567;BME280;3317;43.994;22.878;2022-09-04T07:26:23;101625.56;;;17.96;87.28
6567;BME280;3317;43.994;22.878;2022-09-04T07:29:04;101577.78;;;17.67;87.31
6567;BME280;3317;43.994;22.878;2022-09-04T07:31:39;101619.41;;;17.94;87.00
6567;BME280;3317;43.994;22.878;2022-09-04T07:34:15;101618.75;;;17.92;86.87
6567;BME280;3317;43.994;22.878;2022-09-04T07:36:51;101625.75;;;17.94;86.31
6567;BME280;3317;43.994;22.878;2022-09-04T07:39:28;101634.28;;;18.08;85.21
6567;BME280;3317;43.994;22.878;2022-09-04T07:42:04;101644.88;;;18.11;85.03
6567;BME280;3317;43.994;22.878;2022-09-04T07:44:41;101594.34;;;17.97;84.30
6567;BME280;3317;43.994;22.878;2022-09-04T07:47:16;101627.44;;;18.27;83.63
6567;BME280;3317;43.994;22.878;2022-09-04T07:49:59;101641.03;;;18.43;83.30
6567;BME280;3317;43.994;22.878;2022-09-04T07:52:42;101644.94;;;18.49;82.57
6567;BME280;3317;43.994;22.878;2022-09-04T07:55:28;101651.03;;;18.60;82.08
6567;BME280;3317;43.994;22.878;2022-09-04T07:58:11;101641.31;;;18.49;82.26
6567;BME280;3317;43.994;22.878;2022-09-04T08:00:55;101624.25;;;18.38;82.09
6567;BME280;3317;43.994;22.878;2022-09-04T08:03:35;101653.44;;;18.54;82.20
6567;BME280;3317;43.994;22.878;2022-09-04T08:06:10;101658.00;;;18.62;81.92
6567;BME280;3317;43.994;22.878;2022-09-04T08:09:02;101645.03;;;18.56;81.83
6567;BME280;3317;43.994;22.878;2022-09-04T08:11:56;101667.72;;;18.73;81.18
6567;BME280;3317;43.994;22.878;2022-09-04T08:17:53;101662.13;;;18.81;80.89
6567;BME280;3317;43.994;22.878;2022-09-04T08:20:41;101661.28;;;18.81;80.72
6567;BME280;3317;43.994;22.878;2022-09-04T08:23:21;101656.75;;;18.88;80.25
6567;BME280;3317;43.994;22.878;2022-09-04T08:25:55;101663.94;;;18.89;79.79
6567;BME280;3317;43.994;22.878;2022-09-04T08:28:39;101672.50;;;18.94;79.34
6567;BME280;3317;43.994;22.878;2022-09-04T08:31:21;101665.28;;;18.93;79.37
6567;BME280;3317;43.994;22.878;2022-09-04T08:33:59;101669.09;;;18.92;79.01
6567;BME280;3317;43.994;22.878;2022-09-04T08:36:37;101669.19;;;18.99;78.82
6567;BME280;3317;43.994;22.878;2022-09-04T08:39:09;101667.31;;;18.99;78.61
6567;BME280;3317;43.994;22.878;2022-09-04T08:42:04;101680.59;;;19.11;78.32
6567;BME280;3317;43.994;22.878;2022-09-04T08:51:46;101657.78;;;19.10;78.38
6567;BME280;3317;43.994;22.878;2022-09-04T08:54:55;101660.88;;;19.07;78.04
6567;BME280;3317;43.994;22.878;2022-09-04T08:57:46;101667.78;;;19.03;78.22
6567;BME280;3317;43.994;22.878;2022-09-04T09:00:17;101652.94;;;18.89;79.14
6567;BME280;3317;43.994;22.878;2022-09-04T09:03:16;101659.31;;;18.90;79.45
6567;BME280;3317;43.994;22.878;2022-09-04T09:09:09;101673.09;;;19.05;79.45
6567;BME280;3317;43.994;22.878;2022-09-04T09:12:08;101687.50;;;19.07;79.18
6567;BME280;3317;43.994;22.878;2022-09-04T09:14:59;101696.78;;;19.06;79.38
6567;BME280;3317;43.994;22.878;2022-09-04T09:17:36;101709.47;;;19.07;79.29
6567;BME280;3317;43.994;22.878;2022-09-04T09:20:22;101697.72;;;19.13;78.58
6567;BME280;3317;43.994;22.878;2022-09-04T09:23:14;101702.38;;;19.12;78.49
6567;BME280;3317;43.994;22.878;2022-09-04T09:26:06;101699.09;;;19.17;78.22
6567;BME280;3317;43.994;22.878;2022-09-04T09:29:24;101700.78;;;19.18;78.20
6567;BME280;3317;43.994;22.878;2022-09-04T09:32:37;101683.34;;;19.11;78.03
6567;BME280;3317;43.994;22.878;2022-09-04T09:35:47;101684.38;;;19.10;77.89
6567;BME280;3317;43.994;22.878;2022-09-04T09:38:47;101651.63;;;18.85;77.94
6567;BME280;3317;43.994;22.878;2022-09-04T09:41:37;101674.81;;;19.06;78.26
6567;BME280;3317;43.994;22.878;2022-09-04T09:51:43;101683.22;;;19.04;78.03
6567;BME280;3317;43.994;22.878;2022-09-04T09:57:36;101652.94;;;18.89;77.60
6567;BME280;3317;43.994;22.878;2022-09-04T10:00:13;101676.69;;;19.05;77.84
6567;BME280;3317;43.994;22.878;2022-09-04T10:09:22;101688.41;;;18.99;77.39
6567;BME280;3317;43.994;22.878;2022-09-04T10:18:33;101718.09;;;19.19;76.21
6567;BME280;3317;43.994;22.878;2022-09-04T10:21:49;101715.78;;;19.31;76.16
6567;BME280;3317;43.994;22.878;2022-09-04T10:25:07;101711.13;;;19.46;75.59
6567;BME280;3317;43.994;22.878;2022-09-04T10:28:14;101713.50;;;19.64;74.71
6567;BME280;3317;43.994;22.878;2022-09-04T10:36:52;101642.41;;;19.46;73.86
6567;BME280;3317;43.994;22.878;2022-09-04T10:39:36;101710.06;;;19.92;73.57
6567;BME280;3317;43.994;22.878;2022-09-04T10:42:38;101663.44;;;19.69;73.50
6567;BME280;3317;43.994;22.878;2022-09-04T10:45:15;101689.75;;;19.78;73.78
6567;BME280;3317;43.994;22.878;2022-09-04T10:48:21;101709.78;;;19.72;74.11
6567;BME280;3317;43.994;22.878;2022-09-04T10:51:14;101684.69;;;19.45;73.87
6567;BME280;3317;43.994;22.878;2022-09-04T10:54:21;101677.19;;;19.39;74.24
6567;BME280;3317;43.994;22.878;2022-09-04T10:57:06;101683.63;;;19.46;74.52
6567;BME280;3317;43.994;22.878;2022-09-04T10:59:54;101690.75;;;19.55;74.73
6567;BME280;3317;43.994;22.878;2022-09-04T11:06:23;101694.50;;;19.69;74.50
6567;BME280;3317;43.994;22.878;2022-09-04T11:09:02;101699.84;;;19.71;73.80
6567;BME280;3317;43.994;22.878;2022-09-04T11:11:47;101680.50;;;19.64;73.29
6567;BME280;3317;43.994;22.878;2022-09-04T11:14:48;101665.88;;;19.64;72.97
6567;BME280;3317;43.994;22.878;2022-09-04T11:17:53;101661.81;;;19.60;72.70
6567;BME280;3317;43.994;22.878;2022-09-04T11:27:25;101672.50;;;19.84;72.75
6567;BME280;3317;43.994;22.878;2022-09-04T11:30:04;101680.34;;;19.88;72.76
6567;BME280;3317;43.994;22.878;2022-09-04T11:32:53;101692.66;;;19.92;72.52
6567;BME280;3317;43.994;22.878;2022-09-04T11:35:40;101669.66;;;19.93;72.35
6567;BME280;3317;43.994;22.878;2022-09-04T11:38:31;101676.84;;;19.94;71.65
6567;BME280;3317;43.994;22.878;2022-09-04T11:50:41;101679.59;;;19.94;71.64
6567;BME280;3317;43.994;22.878;2022-09-04T11:54:04;101604.75;;;19.47;71.81
6567;BME280;3317;43.994;22.878;2022-09-04T11:56:42;101654.28;;;19.83;71.82
6567;BME280;3317;43.994;22.878;2022-09-04T11:59:46;101644.44;;;19.74;72.02
6567;BME280;3317;43.994;22.878;2022-09-04T12:02:42;101673.53;;;19.98;71.67
6567;BME280;3317;43.994;22.878;2022-09-04T12:05:20;101670.97;;;19.97;71.33
6567;BME280;3317;43.994;22.878;2022-09-04T12:08:17;101669.16;;;20.04;71.01
6567;BME280;3317;43.994;22.878;2022-09-04T12:11:00;101678.34;;;20.11;70.63
6567;BME280;3317;43.994;22.878;2022-09-04T12:16:51;101661.22;;;19.94;70.75
6567;BME280;3317;43.994;22.878;2022-09-04T12:19:46;101666.13;;;19.99;70.91
6567;BME280;3317;43.994;22.878;2022-09-04T12:22:47;101661.53;;;20.06;70.95
6567;BME280;3317;43.994;22.878;2022-09-04T12:28:47;101650.81;;;20.11;70.51
6567;BME280;3317;43.994;22.878;2022-09-04T12:31:39;101655.53;;;20.18;70.37
6567;BME280;3317;43.994;22.878;2022-09-04T12:34:27;101602.41;;;19.95;69.90
6567;BME280;3317;43.994;22.878;2022-09-04T12:37:46;101653.66;;;20.40;69.46
6567;BME280;3317;43.994;22.878;2022-09-04T12:40:33;101665.44;;;20.56;68.86
6567;BME280;3317;43.994;22.878;2022-09-04T12:43:13;101650.81;;;20.55;68.69
6567;BME280;3317;43.994;22.878;2022-09-04T12:45:51;101667.25;;;20.70;68.41
6567;BME280;3317;43.994;22.878;2022-09-04T12:48:30;101662.06;;;20.82;67.95
6567;BME280;3317;43.994;22.878;2022-09-04T12:51:06;101663.44;;;20.93;67.78
6567;BME280;3317;43.994;22.878;2022-09-04T12:53:47;101660.47;;;20.94;67.44
6567;BME280;3317;43.994;22.878;2022-09-04T12:56:28;101626.91;;;20.84;67.53
6567;BME280;3317;43.994;22.878;2022-09-04T12:59:16;101656.56;;;21.10;67.12
6567;BME280;3317;43.994;22.878;2022-09-04T13:01:55;101661.91;;;21.19;66.84
6567;BME280;3317;43.994;22.878;2022-09-04T13:04:31;101648.75;;;21.14;66.70
6567;BME280;3317;43.994;22.878;2022-09-04T13:07:16;101642.41;;;21.20;66.52
6567;BME280;3317;43.994;22.878;2022-09-04T13:09:53;101637.34;;;21.24;66.66
6567;BME280;3317;43.994;22.878;2022-09-04T13:12:32;101643.31;;;21.28;66.44
6567;BME280;3317;43.994;22.878;2022-09-04T13:15:25;101648.41;;;21.31;66.63
6567;BME280;3317;43.994;22.878;2022-09-04T13:18:08;101646.25;;;21.26;66.09
6567;BME280;3317;43.994;22.878;2022-09-04T13:20:46;101645.41;;;21.26;65.83
6567;BME280;3317;43.994;22.878;2022-09-04T13:23:32;101627.56;;;21.21;66.26
6567;BME280;3317;43.994;22.878;2022-09-04T13:26:18;101645.00;;;21.29;66.37
6567;BME280;3317;43.994;22.878;2022-09-04T13:29:02;101639.66;;;21.20;66.42
6567;BME280;3317;43.994;22.878;2022-09-04T13:31:47;101631.56;;;21.12;66.48
6567;BME280;3317;43.994;22.878;2022-09-04T13:34:21;101629.63;;;21.13;66.36
6567;BME280;3317;43.994;22.878;2022-09-04T13:36:58;101629.25;;;21.22;66.25
6567;BME280;3317;43.994;22.878;2022-09-04T13:39:43;101624.88;;;21.35;66.64
6567;BME280;3317;43.994;22.878;2022-09-04T13:45:39;101620.59;;;21.26;66.04
6567;BME280;3317;43.994;22.878;2022-09-04T13:48:11;101635.47;;;21.31;65.69
6567;BME280;3317;43.994;22.878;2022-09-04T13:50:46;101624.66;;;21.30;65.54
6567;BME280;3317;43.994;22.878;2022-09-04T13:53:21;101600.00;;;21.21;65.50
6567;BME280;3317;43.994;22.878;2022-09-04T13:55:52;101617.72;;;21.47;65.38
6567;BME280;3317;43.994;22.878;2022-09-04T13:58:26;101579.47;;;21.31;65.49
6567;BME280;3317;43.994;22.878;2022-09-04T14:00:58;101624.13;;;21.55;65.75
6567;BME280;3317;43.994;22.878;2022-09-04T14:03:32;101554.81;;;21.16;65.78
6567;BME280;3317;43.994;22.878;2022-09-04T14:06:04;101607.31;;;21.43;65.41
6567;BME280;3317;43.994;22.878;2022-09-04T14:08:34;101617.94;;;21.46;65.64
6567;BME280;3317;43.994;22.878;2022-09-04T14:11:22;101620.72;;;21.52;66.22
6567;BME280;3317;43.994;22.878;2022-09-04T14:17:10;101617.22;;;21.72;65.91
6567;BME280;3317;43.994;22.878;2022-09-04T14:19:48;101614.28;;;21.80;65.55
6567;BME280;3317;43.994;22.878;2022-09-04T14:22:30;101618.56;;;21.90;65.14
6567;BME280;3317;43.994;22.878;2022-09-04T14:25:09;101620.03;;;21.99;65.26
6567;BME280;3317;43.994;22.878;2022-09-04T14:27:48;101620.72;;;22.01;64.53
6567;BME280;3317;43.994;22.878;2022-09-04T14:30:19;101616.03;;;22.08;64.30
6567;BME280;3317;43.994;22.878;2022-09-04T14:33:00;101621.78;;;22.20;64.02
6567;BME280;3317;43.994;22.878;2022-09-04T14:35:35;101619.69;;;22.22;63.95
6567;BME280;3317;43.994;22.878;2022-09-04T14:38:35;101618.81;;;22.15;63.23
6567;BME280;3317;43.994;22.878;2022-09-04T14:41:15;101601.16;;;21.96;62.78
6567;BME280;3317;43.994;22.878;2022-09-04T14:43:52;101550.38;;;21.70;63.14
6567;BME280;3317;43.994;22.878;2022-09-04T14:46:34;101547.63;;;21.70;63.34
6567;BME280;3317;43.994;22.878;2022-09-04T14:49:09;101509.78;;;21.50;63.61
6567;BME280;3317;43.994;22.878;2022-09-04T14:51:41;101611.59;;;22.14;63.97
6567;BME280;3317;43.994;22.878;2022-09-04T14:54:17;101589.50;;;22.01;63.47
6567;BME280;3317;43.994;22.878;2022-09-04T14:56:47;101599.47;;;22.02;63.39
6567;BME280;3317;43.994;22.878;2022-09-04T14:59:22;101591.34;;;21.87;63.78
6567;BME280;3317;43.994;22.878;2022-09-04T15:02:01;101571.16;;;21.66;64.13
6567;BME280;3317;43.994;22.878;2022-09-04T15:04:32;101575.16;;;21.63;64.16
6567;BME280;3317;43.994;22.878;2022-09-04T15:07:25;101573.66;;;21.61;64.41
6567;BME280;3317;43.994;22.878;2022-09-04T15:10:06;101593.22;;;21.66;64.72
6567;BME280;3317;43.994;22.878;2022-09-04T15:12:37;101598.91;;;21.64;64.85
6567;BME280;3317;43.994;22.878;2022-09-04T15:15:13;101598.47;;;21.61;65.03
6567;BME280;3317;43.994;22.878;2022-09-04T15:17:45;101546.63;;;21.36;65.01
6567;BME280;3317;43.994;22.878;2022-09-04T15:20:19;101594.66;;;21.62;65.16
6567;BME280;3317;43.994;22.878;2022-09-04T15:22:55;101597.03;;;21.65;65.25
6567;BME280;3317;43.994;22.878;2022-09-04T15:25:42;101584.69;;;21.61;65.51
6567;BME280;3317;43.994;22.878;2022-09-04T15:28:17;101584.03;;;21.59;65.41
6567;BME280;3317;43.994;22.878;2022-09-04T15:31:01;101594.25;;;21.65;65.14
6567;BME280;3317;43.994;22.878;2022-09-04T15:33:30;101598.09;;;21.64;65.61
6567;BME280;3317;43.994;22.878;2022-09-04T15:36:05;101590.88;;;21.63;65.67
6567;BME280;3317;43.994;22.878;2022-09-04T15:38:34;101577.06;;;21.56;65.92
6567;BME280;3317;43.994;22.878;2022-09-04T15:41:15;101581.91;;;21.54;65.99
6567;BME280;3317;43.994;22.878;2022-09-04T15:43:51;101554.91;;;21.36;66.33
6567;BME280;3317;43.994;22.878;2022-09-04T15:46:27;101582.13;;;21.52;66.12
6567;BME280;3317;43.994;22.878;2022-09-04T15:49:23;101584.84;;;21.46;66.51
6567;BME280;3317;43.994;22.878;2022-09-04T15:51:55;101579.72;;;21.43;66.75
6567;BME280;3317;43.994;22.878;2022-09-04T15:54:51;101584.41;;;21.42;66.65
6567;BME280;3317;43.994;22.878;2022-09-04T15:57:27;101527.88;;;21.04;66.86